createdAt,value
2022-12-29T00:00:40.764Z,6.39
2022-12-29T00:02:52.995Z,6.39
2022-12-29T00:05:05.610Z,6.38
2022-12-29T00:07:18.018Z,6.37
2022-12-29T00:09:30.013Z,6.36
2022-12-29T00:11:42.314Z,6.36
2022-12-29T00:14:14.378Z,6.35
2022-12-29T00:16:27.325Z,6.34
2022-12-29T00:18:39.188Z,6.33
2022-12-29T00:21:09.820Z,6.33
2022-12-29T00:23:40.775Z,6.31
2022-12-29T00:26:11.726Z,6.31
2022-12-29T00:28:43.147Z,6.30
2022-12-29T00:31:17.925Z,6.30
2022-12-29T00:34:10.830Z,6.29
2022-12-29T00:36:49.867Z,6.29
2022-12-29T00:39:26.739Z,6.28
2022-12-29T00:42:04.741Z,6.28
2022-12-29T00:44:16.642Z,6.28
2022-12-29T00:46:30.009Z,6.28
2022-12-29T00:49:01.138Z,6.29
2022-12-29T00:51:13.302Z,6.28
2022-12-29T00:53:25.910Z,6.30
2022-12-29T00:55:39.402Z,6.31
2022-12-29T00:57:51.358Z,6.32
2022-12-29T01:00:04.485Z,6.33
2022-12-29T01:02:16.551Z,6.35
2022-12-29T01:04:29.060Z,6.34
2022-12-29T01:06:41.979Z,6.36
2022-12-29T01:09:13.120Z,6.37
2022-12-29T01:12:22.049Z,6.37
2022-12-29T01:14:52.912Z,6.37
2022-12-29T01:17:06.109Z,6.37
2022-12-29T01:19:20.154Z,6.38
2022-12-29T01:21:33.480Z,6.38
2022-12-29T01:23:46.296Z,6.39
2022-12-29T01:25:58.901Z,6.41
2022-12-29T01:28:10.897Z,6.42
2022-12-29T01:30:24.220Z,6.44
2022-12-29T01:32:39.399Z,6.46
2022-12-29T01:34:51.395Z,6.49
2022-12-29T01:37:03.685Z,6.50
2022-12-29T01:39:15.587Z,6.53
2022-12-29T01:41:28.802Z,6.53
2022-12-29T01:43:45.733Z,6.55
2022-12-29T01:45:58.162Z,6.57
2022-12-29T01:48:11.655Z,6.58
2022-12-29T01:50:31.652Z,6.59
2022-12-29T01:52:51.464Z,6.60
2022-12-29T01:55:06.063Z,6.61
2022-12-29T01:57:29.747Z,6.62
2022-12-29T01:59:47.159Z,6.62
2022-12-29T02:02:01.078Z,6.61
2022-12-29T02:04:14.388Z,6.64
2022-12-29T02:06:36.553Z,6.64
2022-12-29T02:08:54.592Z,6.65
2022-12-29T02:11:08.552Z,6.67
2022-12-29T02:13:20.732Z,6.69
2022-12-29T02:16:06.780Z,6.71
2022-12-29T02:18:31.104Z,6.72
2022-12-29T02:20:49.357Z,6.74
2022-12-29T02:23:13.743Z,6.76
2022-12-29T02:25:51.530Z,6.77
2022-12-29T02:28:14.183Z,6.79
2022-12-29T02:30:51.668Z,6.80
2022-12-29T02:33:15.950Z,6.80
2022-12-29T02:35:53.237Z,6.81
2022-12-29T02:38:19.368Z,6.81
2022-12-29T02:40:40.188Z,6.81
2022-12-29T02:42:58.313Z,6.81
2022-12-29T02:45:29.693Z,6.79
2022-12-29T02:47:49.537Z,6.78
2022-12-29T02:50:09.925Z,6.77
2022-12-29T02:52:29.520Z,6.75
2022-12-29T02:54:42.112Z,6.74
2022-12-29T02:56:54.724Z,6.73
2022-12-29T02:59:07.522Z,6.72
2022-12-29T03:02:07.437Z,6.71
2022-12-29T03:04:46.269Z,6.70
2022-12-29T03:06:58.267Z,6.68
2022-12-29T03:09:30.643Z,6.68
2022-12-29T03:12:10.788Z,6.68
2022-12-29T03:14:53.557Z,6.68
2022-12-29T03:17:17.442Z,6.67
2022-12-29T03:19:42.377Z,6.67
2022-12-29T03:22:27.455Z,6.67
2022-12-29T03:24:48.973Z,6.67
2022-12-29T03:27:07.720Z,6.67
2022-12-29T03:29:26.597Z,6.66
2022-12-29T03:31:40.640Z,6.66
2022-12-29T03:33:54.748Z,6.66
2022-12-29T03:36:11.126Z,6.65
2022-12-29T03:38:31.423Z,6.65
2022-12-29T03:40:47.066Z,6.64
2022-12-29T03:42:59.843Z,6.63
2022-12-29T03:45:12.554Z,6.62
2022-12-29T03:47:26.206Z,6.61
2022-12-29T03:49:39.000Z,6.60
2022-12-29T03:51:52.006Z,6.59
2022-12-29T03:54:04.525Z,6.57
2022-12-29T03:56:16.320Z,6.55
2022-12-29T03:58:28.435Z,6.54
2022-12-29T04:00:53.825Z,6.53
2022-12-29T04:03:06.221Z,6.51
2022-12-29T04:05:19.053Z,6.51
2022-12-29T04:07:30.931Z,6.50
2022-12-29T04:09:43.439Z,6.49
2022-12-29T04:11:59.631Z,6.49
2022-12-29T04:14:12.683Z,6.48
2022-12-29T04:16:24.679Z,6.48
2022-12-29T04:18:36.947Z,6.46
2022-12-29T04:21:00.853Z,6.46
2022-12-29T04:23:13.531Z,6.46
2022-12-29T04:25:26.052Z,6.45
2022-12-29T04:27:38.443Z,6.46
2022-12-29T04:30:10.924Z,6.47
2022-12-29T04:32:46.364Z,6.48
2022-12-29T04:34:58.768Z,6.49
2022-12-29T04:37:10.735Z,6.50
2022-12-29T04:39:22.857Z,6.50
2022-12-29T04:41:34.469Z,6.51
2022-12-29T04:43:46.583Z,6.52
2022-12-29T04:46:17.698Z,6.54
2022-12-29T04:48:56.786Z,6.54
2022-12-29T04:51:15.567Z,6.55
2022-12-29T04:53:28.074Z,6.56
2022-12-29T04:55:40.274Z,6.57
2022-12-29T04:57:53.545Z,6.59
2022-12-29T05:00:06.718Z,6.60
2022-12-29T05:02:21.592Z,6.61
2022-12-29T05:04:35.216Z,6.62
2022-12-29T05:06:48.647Z,6.65
2022-12-29T05:09:01.459Z,6.68
2022-12-29T05:11:13.566Z,6.69
2022-12-29T05:13:25.979Z,6.71
2022-12-29T05:15:38.169Z,6.72
2022-12-29T05:18:47.609Z,6.72
2022-12-29T05:21:15.890Z,6.70
2022-12-29T05:23:28.800Z,6.71
2022-12-29T05:25:48.586Z,6.72
2022-12-29T05:28:14.572Z,6.72
2022-12-29T05:30:31.101Z,6.74
2022-12-29T05:32:43.500Z,6.76
2022-12-29T05:34:55.698Z,6.78
2022-12-29T05:37:09.025Z,6.81
2022-12-29T05:39:21.346Z,6.82
2022-12-29T05:41:38.134Z,6.84
2022-12-29T05:44:12.868Z,6.86
2022-12-29T05:46:57.097Z,6.88
2022-12-29T05:49:27.951Z,6.91
2022-12-29T05:53:03.100Z,6.93
2022-12-29T05:55:33.636Z,6.94
2022-12-29T05:57:45.928Z,6.96
2022-12-29T06:00:00.230Z,6.97
2022-12-29T06:02:12.896Z,6.99
2022-12-29T06:04:25.323Z,6.99
2022-12-29T06:06:37.897Z,7.01
2022-12-29T06:08:50.320Z,7.01
2022-12-29T06:11:04.175Z,7.02
2022-12-29T06:13:16.134Z,7.02
2022-12-29T06:15:30.598Z,7.03
2022-12-29T06:17:43.404Z,7.03
2022-12-29T06:19:55.510Z,7.04
2022-12-29T06:22:08.744Z,7.03
2022-12-29T06:24:22.151Z,7.04
2022-12-29T06:26:34.043Z,7.05
2022-12-29T06:28:46.957Z,7.05
2022-12-29T06:30:58.848Z,7.07
2022-12-29T06:33:11.061Z,7.07
2022-12-29T06:35:26.019Z,7.08
2022-12-29T06:37:38.315Z,7.09
2022-12-29T06:39:50.159Z,7.10
2022-12-29T06:42:02.103Z,7.11
2022-12-29T06:44:34.681Z,7.14
2022-12-29T06:46:49.478Z,7.17
2022-12-29T06:49:01.636Z,7.20
2022-12-29T06:51:13.434Z,7.23
2022-12-29T06:53:25.317Z,7.26
2022-12-29T06:55:38.033Z,7.29
2022-12-29T06:57:50.030Z,7.32
2022-12-29T07:00:02.942Z,7.34
2022-12-29T07:02:20.741Z,7.34
2022-12-29T07:04:32.869Z,7.35
2022-12-29T07:06:44.866Z,7.36
2022-12-29T07:08:58.507Z,7.38
2022-12-29T07:11:11.959Z,7.38
2022-12-29T07:13:26.593Z,7.39
2022-12-29T07:15:40.339Z,7.40
2022-12-29T07:17:52.419Z,7.41
2022-12-29T07:20:04.763Z,7.45
2022-12-29T07:22:16.711Z,7.46
2022-12-29T07:24:29.024Z,7.48
2022-12-29T07:26:40.818Z,7.50
2022-12-29T07:28:53.211Z,7.52
2022-12-29T07:31:06.639Z,7.55
2022-12-29T07:33:19.555Z,7.57
2022-12-29T07:35:31.753Z,7.59
2022-12-29T07:37:43.956Z,7.62
2022-12-29T07:39:56.125Z,7.64
2022-12-29T07:42:08.299Z,7.66
2022-12-29T07:44:26.229Z,7.68
2022-12-29T07:46:57.801Z,7.68
2022-12-29T07:49:11.163Z,7.68
2022-12-29T07:51:23.463Z,7.69
2022-12-29T07:53:36.380Z,7.71
2022-12-29T07:55:48.484Z,7.73
2022-12-29T07:58:00.787Z,7.75
2022-12-29T08:00:13.561Z,7.78
2022-12-29T08:02:27.545Z,7.81
2022-12-29T08:04:39.937Z,7.83
2022-12-29T08:06:52.143Z,7.85
2022-12-29T08:09:16.450Z,7.86
2022-12-29T08:11:30.156Z,7.87
2022-12-29T08:13:42.254Z,7.88
2022-12-29T08:15:54.514Z,7.89
2022-12-29T08:18:07.262Z,7.90
2022-12-29T08:20:18.770Z,7.90
2022-12-29T08:22:30.870Z,7.91
2022-12-29T08:24:42.941Z,7.91
2022-12-29T08:26:54.940Z,7.91
2022-12-29T08:29:06.641Z,7.92
2022-12-29T08:31:18.551Z,7.94
2022-12-29T08:33:31.539Z,7.96
2022-12-29T08:35:43.427Z,7.97
2022-12-29T08:37:55.523Z,7.98
2022-12-29T08:40:08.543Z,8.00
2022-12-29T08:42:20.743Z,8.01
2022-12-29T08:44:33.045Z,8.02
2022-12-29T08:46:44.973Z,8.02
2022-12-29T08:48:57.034Z,8.03
2022-12-29T08:51:09.550Z,8.03
2022-12-29T08:53:21.841Z,8.03
2022-12-29T08:55:33.735Z,8.04
2022-12-29T08:57:46.649Z,8.05
2022-12-29T09:00:04.381Z,8.06
2022-12-29T09:02:22.048Z,8.08
2022-12-29T09:04:36.117Z,8.10
2022-12-29T09:06:48.453Z,8.12
2022-12-29T09:09:00.661Z,8.15
2022-12-29T09:11:16.948Z,8.16
2022-12-29T09:13:29.250Z,8.19
2022-12-29T09:15:41.120Z,8.23
2022-12-29T09:17:53.244Z,8.24
2022-12-29T09:20:06.053Z,8.27
2022-12-29T09:22:18.151Z,8.32
2022-12-29T09:24:30.246Z,8.39
2022-12-29T09:26:46.977Z,8.45
2022-12-29T09:28:59.359Z,8.49
2022-12-29T09:31:11.622Z,8.58
2022-12-29T09:33:24.166Z,8.63
2022-12-29T09:35:36.198Z,8.80
2022-12-29T09:37:47.954Z,9.01
2022-12-29T09:39:59.847Z,9.09
2022-12-29T09:42:25.355Z,9.19
2022-12-29T09:45:03.154Z,9.38
2022-12-29T09:47:17.197Z,9.52
2022-12-29T09:49:42.298Z,9.63
2022-12-29T09:52:04.398Z,9.75
2022-12-29T09:54:38.040Z,9.78
2022-12-29T09:56:50.847Z,9.78
2022-12-29T09:59:15.240Z,9.76
2022-12-29T10:01:48.465Z,9.73
2022-12-29T10:04:04.271Z,9.71
2022-12-29T10:06:27.368Z,9.77
2022-12-29T10:08:51.850Z,9.92
2022-12-29T10:11:12.549Z,10.10
2022-12-29T10:13:35.317Z,10.24
2022-12-29T10:16:12.934Z,10.37
2022-12-29T10:18:43.829Z,10.47
2022-12-29T10:21:08.110Z,10.58
2022-12-29T10:23:29.243Z,10.68
2022-12-29T10:25:43.573Z,10.73
2022-12-29T10:28:00.482Z,10.78
2022-12-29T10:30:14.856Z,10.86
2022-12-29T10:32:39.476Z,10.92
2022-12-29T10:34:59.650Z,10.99
2022-12-29T10:37:25.384Z,11.06
2022-12-29T10:39:50.934Z,11.10
2022-12-29T10:42:25.975Z,11.12
2022-12-29T10:44:38.793Z,11.12
2022-12-29T10:46:59.382Z,11.03
2022-12-29T10:49:21.790Z,10.97
2022-12-29T10:51:42.448Z,11.04
2022-12-29T10:54:02.714Z,11.24
2022-12-29T10:56:41.020Z,11.44
2022-12-29T10:58:57.008Z,11.55
2022-12-29T11:01:13.483Z,11.67
2022-12-29T11:03:41.271Z,11.72
2022-12-29T11:05:58.849Z,11.77
2022-12-29T11:08:15.502Z,11.78
2022-12-29T11:10:33.971Z,11.82
2022-12-29T11:12:58.538Z,11.85
2022-12-29T11:15:10.665Z,11.83
2022-12-29T11:17:22.736Z,11.81
2022-12-29T11:19:40.817Z,11.81
2022-12-29T11:21:54.002Z,11.84
2022-12-29T11:24:28.003Z,11.86
2022-12-29T11:26:40.613Z,11.87
2022-12-29T11:29:23.960Z,11.87
2022-12-29T11:31:50.733Z,11.90
2022-12-29T11:34:08.718Z,11.90
2022-12-29T11:36:24.503Z,11.90
2022-12-29T11:38:40.404Z,11.91
2022-12-29T11:40:52.909Z,11.91
2022-12-29T11:43:05.601Z,11.91
2022-12-29T11:45:29.178Z,11.93
2022-12-29T11:47:55.528Z,12.00
2022-12-29T11:50:09.308Z,12.04
2022-12-29T11:52:27.785Z,12.06
2022-12-29T11:54:39.885Z,12.11
2022-12-29T11:56:52.993Z,12.12
2022-12-29T11:59:37.667Z,12.08
2022-12-29T12:01:49.651Z,11.99
2022-12-29T12:04:11.637Z,11.89
2022-12-29T12:06:25.416Z,11.81
2022-12-29T12:08:42.522Z,11.78
2022-12-29T12:11:02.933Z,11.78
2022-12-29T12:13:26.475Z,11.74
2022-12-29T12:15:52.836Z,11.75
2022-12-29T12:18:32.517Z,11.74
2022-12-29T12:21:21.739Z,11.73
2022-12-29T12:23:43.463Z,11.69
2022-12-29T12:26:13.179Z,11.61
2022-12-29T12:28:49.821Z,11.55
2022-12-29T12:31:05.997Z,11.51
2022-12-29T12:33:34.824Z,11.50
2022-12-29T12:36:46.110Z,11.50
2022-12-29T12:39:20.327Z,11.45
2022-12-29T12:41:49.847Z,11.45
2022-12-29T12:44:03.992Z,11.45
2022-12-29T12:46:34.435Z,11.45
2022-12-29T12:48:57.972Z,11.43
2022-12-29T12:51:29.218Z,11.41
2022-12-29T12:54:15.004Z,11.40
2022-12-29T12:56:26.829Z,11.40
2022-12-29T12:59:16.995Z,11.39
2022-12-29T13:02:01.338Z,11.36
2022-12-29T13:05:38.331Z,11.30
2022-12-29T13:08:20.036Z,11.26
2022-12-29T13:10:53.572Z,11.23
2022-12-29T13:13:49.307Z,11.19
2022-12-29T13:16:35.826Z,11.14
2022-12-29T13:18:58.896Z,11.09
2022-12-29T13:21:28.816Z,11.05
2022-12-29T13:24:13.899Z,11.01
2022-12-29T13:26:34.279Z,10.99
2022-12-29T13:29:07.991Z,10.98
2022-12-29T13:31:53.330Z,10.97
2022-12-29T13:34:44.062Z,10.95
2022-12-29T13:37:01.393Z,11.01
2022-12-29T13:39:29.563Z,11.02
2022-12-29T13:41:51.477Z,11.01
2022-12-29T13:44:05.825Z,11.01
2022-12-29T13:46:28.187Z,11.06
2022-12-29T13:49:00.128Z,11.06
2022-12-29T13:51:12.940Z,11.20
2022-12-29T13:53:44.185Z,11.37
2022-12-29T13:56:14.932Z,11.33
2022-12-29T13:58:41.559Z,11.29
2022-12-29T14:01:16.627Z,11.25
2022-12-29T14:03:49.146Z,11.21
2022-12-29T14:06:15.314Z,11.17
2022-12-29T14:08:27.495Z,11.13
2022-12-29T14:10:49.045Z,11.11
2022-12-29T14:13:05.932Z,11.08
2022-12-29T14:15:24.383Z,11.07
2022-12-29T14:17:37.799Z,11.08
2022-12-29T14:19:55.429Z,11.08
2022-12-29T14:22:11.400Z,11.05
2022-12-29T14:24:35.926Z,11.03
2022-12-29T14:26:48.011Z,11.00
2022-12-29T14:29:25.180Z,10.96
2022-12-29T14:31:42.197Z,10.92
2022-12-29T14:34:07.099Z,10.89
2022-12-29T14:36:21.847Z,10.86
2022-12-29T14:38:34.048Z,10.84
2022-12-29T14:40:48.612Z,10.84
2022-12-29T14:43:00.411Z,10.83
2022-12-29T14:45:15.259Z,10.82
2022-12-29T14:47:42.454Z,10.82
2022-12-29T14:49:55.764Z,10.80
2022-12-29T14:52:16.428Z,10.79
2022-12-29T14:54:34.467Z,10.81
2022-12-29T14:56:47.497Z,10.82
2022-12-29T14:59:04.095Z,10.83
2022-12-29T15:01:44.619Z,10.83
2022-12-29T15:04:07.637Z,10.82
2022-12-29T15:06:23.407Z,10.81
2022-12-29T15:08:41.677Z,10.78
2022-12-29T15:11:03.556Z,10.75
2022-12-29T15:13:19.473Z,10.71
2022-12-29T15:15:38.319Z,10.68
2022-12-29T15:17:51.348Z,10.65
2022-12-29T15:20:33.026Z,10.64
2022-12-29T15:22:46.443Z,10.61
2022-12-29T15:24:59.155Z,10.60
2022-12-29T15:27:15.199Z,10.58
2022-12-29T15:29:39.217Z,10.57
2022-12-29T15:31:50.858Z,10.56
2022-12-29T15:34:13.600Z,10.55
2022-12-29T15:36:28.618Z,10.55
2022-12-29T15:38:41.320Z,10.54
2022-12-29T15:40:57.115Z,10.54
2022-12-29T15:43:29.070Z,10.52
2022-12-29T15:45:41.482Z,10.50
2022-12-29T15:47:56.647Z,10.50
2022-12-29T15:50:26.048Z,10.47
2022-12-29T15:52:40.722Z,10.44
2022-12-29T15:54:54.537Z,10.42
2022-12-29T15:57:23.992Z,10.39
2022-12-29T15:59:35.678Z,10.36
2022-12-29T16:01:47.925Z,10.34
2022-12-29T16:04:02.567Z,10.32
2022-12-29T16:06:31.477Z,10.31
2022-12-29T16:08:43.477Z,10.30
2022-12-29T16:10:57.416Z,10.28
2022-12-29T16:13:27.880Z,10.25
2022-12-29T16:15:40.246Z,10.23
2022-12-29T16:17:56.745Z,10.21
2022-12-29T16:20:21.097Z,10.18
2022-12-29T16:22:59.244Z,10.16
2022-12-29T16:25:24.845Z,10.15
2022-12-29T16:27:41.043Z,10.13
2022-12-29T16:29:55.911Z,10.11
2022-12-29T16:32:46.712Z,10.10
2022-12-29T16:35:24.309Z,10.07
2022-12-29T16:37:40.508Z,10.05
2022-12-29T16:39:52.238Z,10.02
2022-12-29T16:42:39.205Z,10.01
2022-12-29T16:45:07.685Z,9.97
2022-12-29T16:47:22.068Z,9.94
2022-12-29T16:49:36.820Z,9.91
2022-12-29T16:51:49.423Z,9.88
2022-12-29T16:54:02.931Z,9.85
2022-12-29T16:56:19.958Z,9.84
2022-12-29T16:58:32.939Z,9.81
2022-12-29T17:00:47.297Z,9.78
2022-12-29T17:03:01.817Z,9.76
2022-12-29T17:05:16.333Z,9.73
2022-12-29T17:07:29.238Z,9.70
2022-12-29T17:09:41.031Z,9.69
2022-12-29T17:12:01.702Z,9.68
2022-12-29T17:14:22.461Z,9.66
2022-12-29T17:16:34.443Z,9.66
2022-12-29T17:18:46.212Z,9.65
2022-12-29T17:20:57.898Z,9.63
2022-12-29T17:23:24.334Z,9.61
2022-12-29T17:25:38.886Z,9.58
2022-12-29T17:28:00.010Z,9.57
2022-12-29T17:30:18.051Z,9.56
2022-12-29T17:32:30.438Z,9.56
2022-12-29T17:34:42.444Z,9.57
2022-12-29T17:36:54.738Z,9.57
2022-12-29T17:39:07.032Z,9.58
2022-12-29T17:41:18.516Z,9.59
2022-12-29T17:43:36.682Z,9.60
2022-12-29T17:45:55.429Z,9.60
2022-12-29T17:48:14.579Z,9.58
2022-12-29T17:50:29.860Z,9.54
2022-12-29T17:52:43.195Z,9.52
2022-12-29T17:54:55.777Z,9.49
2022-12-29T17:57:12.197Z,9.46
2022-12-29T17:59:24.071Z,9.43
2022-12-29T18:01:38.988Z,9.40
2022-12-29T18:03:52.908Z,9.38
2022-12-29T18:06:08.464Z,9.35
2022-12-29T18:08:20.549Z,9.30
2022-12-29T18:10:32.538Z,9.28
2022-12-29T18:12:47.004Z,9.24
2022-12-29T18:14:59.314Z,9.19
2022-12-29T18:17:14.586Z,9.15
2022-12-29T18:19:29.675Z,9.09
2022-12-29T18:21:44.492Z,9.04
2022-12-29T18:23:56.180Z,9.01
2022-12-29T18:26:16.163Z,8.99
2022-12-29T18:28:29.195Z,8.95
2022-12-29T18:30:41.381Z,8.92
2022-12-29T18:32:54.738Z,8.90
2022-12-29T18:35:17.263Z,8.87
2022-12-29T18:37:29.039Z,8.83
2022-12-29T18:39:40.932Z,8.80
2022-12-29T18:41:52.516Z,8.78
2022-12-29T18:44:04.614Z,8.75
2022-12-29T18:46:22.309Z,8.73
2022-12-29T18:48:35.472Z,8.70
2022-12-29T18:50:53.416Z,8.69
2022-12-29T18:53:05.063Z,8.68
2022-12-29T18:55:19.845Z,8.68
2022-12-29T18:57:33.068Z,8.66
2022-12-29T18:59:45.267Z,8.67
2022-12-29T19:01:57.220Z,8.67
2022-12-29T19:04:13.455Z,8.67
2022-12-29T19:06:25.315Z,8.68
2022-12-29T19:08:38.061Z,8.68
2022-12-29T19:10:51.178Z,8.68
2022-12-29T19:13:03.177Z,8.68
2022-12-29T19:15:26.640Z,8.67
2022-12-29T19:17:38.739Z,8.65
2022-12-29T19:19:50.629Z,8.64
2022-12-29T19:22:02.248Z,8.62
2022-12-29T19:24:14.412Z,8.59
2022-12-29T19:26:31.801Z,8.57
2022-12-29T19:28:43.931Z,8.55
2022-12-29T19:30:59.902Z,8.54
2022-12-29T19:33:11.613Z,8.53
2022-12-29T19:35:28.805Z,8.53
2022-12-29T19:37:42.494Z,8.53
2022-12-29T19:39:54.300Z,8.52
2022-12-29T19:42:07.062Z,8.53
2022-12-29T19:44:19.677Z,8.52
2022-12-29T19:46:31.492Z,8.53
2022-12-29T19:48:43.864Z,8.56
2022-12-29T19:51:07.739Z,8.58
2022-12-29T19:53:20.039Z,8.57
2022-12-29T19:55:31.625Z,8.58
2022-12-29T19:57:43.729Z,8.59
2022-12-29T19:59:55.410Z,8.59
2022-12-29T20:02:22.138Z,8.60
2022-12-29T20:04:34.452Z,8.60
2022-12-29T20:06:47.166Z,8.60
2022-12-29T20:09:02.747Z,8.60
2022-12-29T20:11:17.657Z,8.59
2022-12-29T20:13:31.441Z,8.58
2022-12-29T20:15:44.359Z,8.57
2022-12-29T20:18:12.946Z,8.56
2022-12-29T20:20:26.477Z,8.54
2022-12-29T20:22:38.057Z,8.50
2022-12-29T20:24:52.053Z,8.46
2022-12-29T20:27:06.844Z,8.45
2022-12-29T20:29:19.977Z,8.42
2022-12-29T20:31:38.132Z,8.39
2022-12-29T20:33:50.727Z,8.37
2022-12-29T20:36:07.435Z,8.35
2022-12-29T20:38:19.434Z,8.32
2022-12-29T20:40:31.255Z,8.30
2022-12-29T20:42:42.939Z,8.28
2022-12-29T20:44:54.797Z,8.26
2022-12-29T20:47:08.131Z,8.24
2022-12-29T20:49:19.714Z,8.21
2022-12-29T20:51:59.302Z,8.22
2022-12-29T20:54:04.791Z,8.19
2022-12-29T20:56:20.789Z,8.16
2022-12-29T20:58:35.398Z,8.13
2022-12-29T21:00:55.860Z,8.08
2022-12-29T21:03:08.147Z,8.06
2022-12-29T21:05:24.861Z,8.02
2022-12-29T21:07:37.652Z,7.98
2022-12-29T21:09:49.443Z,7.95
2022-12-29T21:12:02.672Z,7.92
2022-12-29T21:14:14.558Z,7.90
2022-12-29T21:16:26.694Z,7.87
2022-12-29T21:18:39.780Z,7.86
2022-12-29T21:20:59.552Z,7.86
2022-12-29T21:23:11.340Z,7.86
2022-12-29T21:25:23.661Z,7.87
2022-12-29T21:27:35.535Z,7.88
2022-12-29T21:29:47.949Z,7.88
2022-12-29T21:32:06.257Z,7.89
2022-12-29T21:34:18.959Z,7.90
2022-12-29T21:36:32.124Z,7.90
2022-12-29T21:38:43.907Z,7.90
2022-12-29T21:40:55.899Z,7.90
2022-12-29T21:43:07.994Z,7.89
2022-12-29T21:45:25.733Z,7.90
2022-12-29T21:47:56.563Z,7.92
2022-12-29T21:50:09.292Z,7.93
2022-12-29T21:52:21.325Z,7.93
2022-12-29T21:54:51.700Z,7.95
2022-12-29T21:57:05.027Z,7.96
2022-12-29T21:59:36.058Z,7.98
2022-12-29T22:02:07.989Z,8.01
2022-12-29T22:04:44.703Z,8.02
2022-12-29T22:07:16.150Z,8.03
2022-12-29T22:09:47.601Z,8.06
2022-12-29T22:12:18.438Z,8.08
2022-12-29T22:14:30.262Z,8.09
2022-12-29T22:16:42.119Z,8.10
2022-12-29T22:18:54.120Z,8.10
2022-12-29T22:21:11.048Z,8.10
2022-12-29T22:23:23.016Z,8.10
2022-12-29T22:25:34.808Z,8.10
2022-12-29T22:27:46.700Z,8.11
2022-12-29T22:29:58.490Z,8.11
2022-12-29T22:32:10.589Z,8.11
2022-12-29T22:34:22.477Z,8.11
2022-12-29T22:36:35.109Z,8.10
2022-12-29T22:38:47.096Z,8.10
2022-12-29T22:41:00.632Z,8.09
2022-12-29T22:43:13.508Z,8.08
2022-12-29T22:45:26.664Z,8.08
2022-12-29T22:47:38.748Z,8.07
2022-12-29T22:49:51.560Z,8.06
2022-12-29T22:52:04.614Z,8.04
2022-12-29T22:54:16.063Z,8.02
2022-12-29T22:56:27.751Z,8.01
2022-12-29T22:58:43.741Z,8.00
2022-12-29T23:00:55.228Z,7.99
2022-12-29T23:03:07.210Z,7.97
2022-12-29T23:05:20.390Z,7.95
2022-12-29T23:07:34.189Z,7.92
2022-12-29T23:09:46.271Z,7.89
2022-12-29T23:11:57.967Z,7.87
2022-12-29T23:14:10.364Z,7.86
2022-12-29T23:16:22.397Z,7.84
2022-12-29T23:18:34.150Z,7.83
2022-12-29T23:20:48.418Z,7.82
2022-12-29T23:23:00.401Z,7.82
2022-12-29T23:25:12.134Z,7.83
2022-12-29T23:27:24.175Z,7.83
2022-12-29T23:29:36.079Z,7.84
2022-12-29T23:31:48.253Z,7.85
2022-12-29T23:34:01.081Z,7.86
2022-12-29T23:36:13.587Z,7.86
2022-12-29T23:38:25.996Z,7.84
2022-12-29T23:40:37.581Z,7.85
2022-12-29T23:42:49.578Z,7.83
2022-12-29T23:45:01.363Z,7.84
2022-12-29T23:47:13.867Z,7.87
2022-12-29T23:49:25.556Z,7.89
2022-12-29T23:51:37.550Z,7.89
2022-12-29T23:53:49.449Z,7.89
2022-12-29T23:56:01.331Z,7.89
2022-12-29T23:58:13.341Z,7.89
